sensor_id;sensor_type;location;lat;lon;timestamp;P1;durP1;ratioP1;P2;durP2;ratioP2
15624;SDS011;7912;51.376;6.126;2023-02-17T00:05:38;11.20;;;9.00;;
15624;SDS011;7912;51.376;6.126;2023-02-17T00:08:06;9.30;;;8.30;;
15624;SDS011;7912;51.376;6.126;2023-02-17T00:10:33;9.90;;;8.47;;
15624;SDS011;7912;51.376;6.126;2023-02-17T00:13:00;10.33;;;8.27;;
15624;SDS011;7912;51.376;6.126;2023-02-17T00:19:37;8.33;;;7.53;;
15624;SDS011;7912;51.376;6.126;2023-02-17T00:22:04;9.07;;;8.03;;
15624;SDS011;7912;51.376;6.126;2023-02-17T00:28:31;8.77;;;7.83;;
15624;SDS011;7912;51.376;6.126;2023-02-17T00:30:58;8.60;;;7.67;;
15624;SDS011;7912;51.376;6.126;2023-02-17T00:33:32;9.07;;;7.80;;
15624;SDS011;7912;51.376;6.126;2023-02-17T00:36:01;9.20;;;7.93;;
15624;SDS011;7912;51.376;6.126;2023-02-17T00:38:34;8.50;;;7.47;;
15624;SDS011;7912;51.376;6.126;2023-02-17T00:41:01;8.97;;;7.67;;
15624;SDS011;7912;51.376;6.126;2023-02-17T00:43:29;8.43;;;7.60;;
15624;SDS011;7912;51.376;6.126;2023-02-17T00:45:56;7.97;;;7.17;;
15624;SDS011;7912;51.376;6.126;2023-02-17T00:48:24;8.67;;;7.83;;
15624;SDS011;7912;51.376;6.126;2023-02-17T00:50:51;8.47;;;7.57;;
15624;SDS011;7912;51.376;6.126;2023-02-17T00:53:18;8.73;;;7.87;;
15624;SDS011;7912;51.376;6.126;2023-02-17T00:55:46;7.77;;;7.07;;
15624;SDS011;7912;51.376;6.126;2023-02-17T00:58:13;8.37;;;7.57;;
15624;SDS011;7912;51.376;6.126;2023-02-17T01:00:41;8.00;;;7.20;;
15624;SDS011;7912;51.376;6.126;2023-02-17T01:03:08;7.57;;;6.83;;
15624;SDS011;7912;51.376;6.126;2023-02-17T01:05:39;8.07;;;7.23;;
15624;SDS011;7912;51.376;6.126;2023-02-17T01:08:09;7.57;;;6.87;;
15624;SDS011;7912;51.376;6.126;2023-02-17T01:10:37;7.40;;;6.77;;
15624;SDS011;7912;51.376;6.126;2023-02-17T01:13:10;8.30;;;7.37;;
15624;SDS011;7912;51.376;6.126;2023-02-17T01:15:39;7.67;;;6.90;;
15624;SDS011;7912;51.376;6.126;2023-02-17T01:18:17;7.60;;;6.67;;
15624;SDS011;7912;51.376;6.126;2023-02-17T01:20:46;8.50;;;6.93;;
15624;SDS011;7912;51.376;6.126;2023-02-17T01:23:13;7.17;;;6.57;;
15624;SDS011;7912;51.376;6.126;2023-02-17T01:25:42;7.63;;;6.90;;
15624;SDS011;7912;51.376;6.126;2023-02-17T01:28:14;7.07;;;6.47;;
15624;SDS011;7912;51.376;6.126;2023-02-17T01:30:45;8.13;;;6.80;;
15624;SDS011;7912;51.376;6.126;2023-02-17T01:33:14;7.70;;;6.87;;
15624;SDS011;7912;51.376;6.126;2023-02-17T01:35:41;7.10;;;6.40;;
15624;SDS011;7912;51.376;6.126;2023-02-17T01:38:11;7.30;;;6.53;;
15624;SDS011;7912;51.376;6.126;2023-02-17T01:40:46;6.67;;;5.97;;
15624;SDS011;7912;51.376;6.126;2023-02-17T01:43:15;7.13;;;6.43;;
15624;SDS011;7912;51.376;6.126;2023-02-17T01:45:50;7.10;;;6.40;;
15624;SDS011;7912;51.376;6.126;2023-02-17T01:48:21;7.10;;;6.40;;
15624;SDS011;7912;51.376;6.126;2023-02-17T01:50:59;6.93;;;6.23;;
15624;SDS011;7912;51.376;6.126;2023-02-17T01:53:37;7.97;;;6.10;;
15624;SDS011;7912;51.376;6.126;2023-02-17T01:59:07;7.23;;;6.53;;
15624;SDS011;7912;51.376;6.126;2023-02-17T02:01:46;6.80;;;6.10;;
15624;SDS011;7912;51.376;6.126;2023-02-17T02:04:18;6.87;;;6.27;;
15624;SDS011;7912;51.376;6.126;2023-02-17T02:06:49;7.83;;;6.70;;
15624;SDS011;7912;51.376;6.126;2023-02-17T02:09:18;7.33;;;6.50;;
15624;SDS011;7912;51.376;6.126;2023-02-17T02:11:55;7.30;;;6.60;;
15624;SDS011;7912;51.376;6.126;2023-02-17T02:14:22;7.40;;;6.57;;
15624;SDS011;7912;51.376;6.126;2023-02-17T02:16:53;7.23;;;6.57;;
15624;SDS011;7912;51.376;6.126;2023-02-17T02:26:02;6.97;;;6.27;;
15624;SDS011;7912;51.376;6.126;2023-02-17T02:32:05;7.77;;;7.07;;
15624;SDS011;7912;51.376;6.126;2023-02-17T02:34:55;7.17;;;6.43;;
15624;SDS011;7912;51.376;6.126;2023-02-17T02:37:38;7.53;;;6.63;;
15624;SDS011;7912;51.376;6.126;2023-02-17T02:40:16;7.00;;;6.30;;
15624;SDS011;7912;51.376;6.126;2023-02-17T02:42:49;7.00;;;6.30;;
15624;SDS011;7912;51.376;6.126;2023-02-17T02:45:17;6.83;;;6.00;;
15624;SDS011;7912;51.376;6.126;2023-02-17T02:50:27;6.90;;;6.30;;
15624;SDS011;7912;51.376;6.126;2023-02-17T03:05:58;7.20;;;6.50;;
15624;SDS011;7912;51.376;6.126;2023-02-17T03:08:52;6.93;;;6.23;;
15624;SDS011;7912;51.376;6.126;2023-02-17T03:11:30;6.83;;;6.23;;
15624;SDS011;7912;51.376;6.126;2023-02-17T03:14:02;6.73;;;6.13;;
15624;SDS011;7912;51.376;6.126;2023-02-17T03:16:36;7.30;;;6.60;;
15624;SDS011;7912;51.376;6.126;2023-02-17T03:19:06;7.27;;;6.63;;
15624;SDS011;7912;51.376;6.126;2023-02-17T03:21:37;6.97;;;6.30;;
15624;SDS011;7912;51.376;6.126;2023-02-17T03:24:18;7.60;;;6.47;;
15624;SDS011;7912;51.376;6.126;2023-02-17T03:26:45;6.70;;;6.10;;
15624;SDS011;7912;51.376;6.126;2023-02-17T03:29:13;7.00;;;6.40;;
15624;SDS011;7912;51.376;6.126;2023-02-17T03:31:40;6.50;;;5.90;;
15624;SDS011;7912;51.376;6.126;2023-02-17T03:34:08;7.27;;;6.57;;
15624;SDS011;7912;51.376;6.126;2023-02-17T03:36:35;6.40;;;5.80;;
15624;SDS011;7912;51.376;6.126;2023-02-17T03:39:02;7.27;;;6.50;;
15624;SDS011;7912;51.376;6.126;2023-02-17T03:41:29;6.93;;;6.33;;
15624;SDS011;7912;51.376;6.126;2023-02-17T03:43:56;6.43;;;5.93;;
15624;SDS011;7912;51.376;6.126;2023-02-17T03:46:23;7.10;;;6.40;;
15624;SDS011;7912;51.376;6.126;2023-02-17T03:48:50;7.03;;;6.33;;
15624;SDS011;7912;51.376;6.126;2023-02-17T03:51:19;6.30;;;5.70;;
15624;SDS011;7912;51.376;6.126;2023-02-17T03:53:48;6.67;;;6.07;;
15624;SDS011;7912;51.376;6.126;2023-02-17T03:56:16;6.40;;;5.80;;
15624;SDS011;7912;51.376;6.126;2023-02-17T03:58:44;6.57;;;5.90;;
15624;SDS011;7912;51.376;6.126;2023-02-17T04:01:12;6.67;;;5.63;;
15624;SDS011;7912;51.376;6.126;2023-02-17T04:03:40;7.10;;;6.40;;
15624;SDS011;7912;51.376;6.126;2023-02-17T04:06:07;6.37;;;5.87;;
15624;SDS011;7912;51.376;6.126;2023-02-17T04:08:37;6.03;;;5.43;;
15624;SDS011;7912;51.376;6.126;2023-02-17T04:14:12;6.20;;;5.70;;
15624;SDS011;7912;51.376;6.126;2023-02-17T04:16:39;6.73;;;6.13;;
15624;SDS011;7912;51.376;6.126;2023-02-17T04:19:06;6.73;;;6.23;;
15624;SDS011;7912;51.376;6.126;2023-02-17T04:21:33;6.60;;;6.10;;
15624;SDS011;7912;51.376;6.126;2023-02-17T04:24:01;7.20;;;6.50;;
15624;SDS011;7912;51.376;6.126;2023-02-17T04:26:29;6.40;;;5.90;;
15624;SDS011;7912;51.376;6.126;2023-02-17T04:28:56;6.53;;;5.93;;
15624;SDS011;7912;51.376;6.126;2023-02-17T04:31:23;7.07;;;6.47;;
15624;SDS011;7912;51.376;6.126;2023-02-17T04:33:53;6.47;;;5.87;;
15624;SDS011;7912;51.376;6.126;2023-02-17T04:36:20;6.03;;;5.43;;
15624;SDS011;7912;51.376;6.126;2023-02-17T04:38:47;6.60;;;6.00;;
15624;SDS011;7912;51.376;6.126;2023-02-17T04:41:15;6.67;;;5.80;;
15624;SDS011;7912;51.376;6.126;2023-02-17T04:43:42;6.03;;;5.43;;
15624;SDS011;7912;51.376;6.126;2023-02-17T04:46:09;6.23;;;5.63;;
15624;SDS011;7912;51.376;6.126;2023-02-17T04:48:37;5.87;;;5.37;;
15624;SDS011;7912;51.376;6.126;2023-02-17T04:51:04;6.17;;;5.57;;
15624;SDS011;7912;51.376;6.126;2023-02-17T04:53:32;5.60;;;5.10;;
15624;SDS011;7912;51.376;6.126;2023-02-17T04:55:59;5.97;;;5.37;;
15624;SDS011;7912;51.376;6.126;2023-02-17T04:58:26;5.90;;;5.30;;
15624;SDS011;7912;51.376;6.126;2023-02-17T05:00:53;7.23;;;6.17;;
15624;SDS011;7912;51.376;6.126;2023-02-17T05:03:24;6.43;;;5.80;;
15624;SDS011;7912;51.376;6.126;2023-02-17T05:05:51;6.27;;;5.67;;
15624;SDS011;7912;51.376;6.126;2023-02-17T05:08:18;6.20;;;5.60;;
15624;SDS011;7912;51.376;6.126;2023-02-17T05:10:46;5.70;;;5.10;;
15624;SDS011;7912;51.376;6.126;2023-02-17T05:13:13;7.70;;;5.90;;
15624;SDS011;7912;51.376;6.126;2023-02-17T05:15:41;5.57;;;4.80;;
15624;SDS011;7912;51.376;6.126;2023-02-17T05:18:10;5.60;;;5.00;;
15624;SDS011;7912;51.376;6.126;2023-02-17T05:20:38;5.60;;;5.07;;
15624;SDS011;7912;51.376;6.126;2023-02-17T05:23:06;5.63;;;4.90;;
15624;SDS011;7912;51.376;6.126;2023-02-17T05:25:33;5.47;;;4.77;;
15624;SDS011;7912;51.376;6.126;2023-02-17T05:28:00;5.40;;;4.77;;
15624;SDS011;7912;51.376;6.126;2023-02-17T05:30:28;5.37;;;4.63;;
15624;SDS011;7912;51.376;6.126;2023-02-17T05:32:55;5.10;;;4.60;;
15624;SDS011;7912;51.376;6.126;2023-02-17T05:38:32;4.97;;;4.53;;
15624;SDS011;7912;51.376;6.126;2023-02-17T05:40:59;5.20;;;4.70;;
15624;SDS011;7912;51.376;6.126;2023-02-17T05:43:27;4.93;;;3.83;;
15624;SDS011;7912;51.376;6.126;2023-02-17T05:45:54;4.40;;;3.87;;
15624;SDS011;7912;51.376;6.126;2023-02-17T05:48:21;4.83;;;4.30;;
15624;SDS011;7912;51.376;6.126;2023-02-17T05:50:48;5.30;;;4.63;;
15624;SDS011;7912;51.376;6.126;2023-02-17T05:56:01;5.23;;;4.70;;
15624;SDS011;7912;51.376;6.126;2023-02-17T05:58:29;5.27;;;4.77;;
15624;SDS011;7912;51.376;6.126;2023-02-17T06:00:57;5.20;;;4.70;;
15624;SDS011;7912;51.376;6.126;2023-02-17T06:03:24;5.63;;;4.77;;
15624;SDS011;7912;51.376;6.126;2023-02-17T06:05:51;5.53;;;4.80;;
15624;SDS011;7912;51.376;6.126;2023-02-17T06:08:18;5.13;;;4.63;;
15624;SDS011;7912;51.376;6.126;2023-02-17T06:10:45;6.30;;;4.90;;
15624;SDS011;7912;51.376;6.126;2023-02-17T06:13:13;5.93;;;5.33;;
15624;SDS011;7912;51.376;6.126;2023-02-17T06:15:42;5.67;;;5.17;;
15624;SDS011;7912;51.376;6.126;2023-02-17T06:18:10;5.80;;;4.63;;
15624;SDS011;7912;51.376;6.126;2023-02-17T06:20:37;5.90;;;5.30;;
15624;SDS011;7912;51.376;6.126;2023-02-17T06:23:05;5.57;;;5.10;;
15624;SDS011;7912;51.376;6.126;2023-02-17T06:25:32;5.30;;;4.80;;
15624;SDS011;7912;51.376;6.126;2023-02-17T06:27:59;5.57;;;4.97;;
15624;SDS011;7912;51.376;6.126;2023-02-17T06:30:26;5.73;;;5.23;;
15624;SDS011;7912;51.376;6.126;2023-02-17T06:32:54;5.70;;;5.00;;
15624;SDS011;7912;51.376;6.126;2023-02-17T06:35:21;5.67;;;5.13;;
15624;SDS011;7912;51.376;6.126;2023-02-17T06:37:48;6.20;;;5.40;;
15624;SDS011;7912;51.376;6.126;2023-02-17T06:40:16;5.50;;;5.00;;
15624;SDS011;7912;51.376;6.126;2023-02-17T06:42:44;6.67;;;5.67;;
15624;SDS011;7912;51.376;6.126;2023-02-17T06:45:11;6.37;;;5.77;;
15624;SDS011;7912;51.376;6.126;2023-02-17T06:47:39;6.30;;;5.70;;
15624;SDS011;7912;51.376;6.126;2023-02-17T06:50:07;6.37;;;5.77;;
15624;SDS011;7912;51.376;6.126;2023-02-17T06:52:36;6.70;;;5.93;;
15624;SDS011;7912;51.376;6.126;2023-02-17T06:55:03;6.03;;;5.43;;
15624;SDS011;7912;51.376;6.126;2023-02-17T06:57:30;6.57;;;5.87;;
15624;SDS011;7912;51.376;6.126;2023-02-17T06:59:58;5.93;;;5.33;;
15624;SDS011;7912;51.376;6.126;2023-02-17T07:02:25;6.87;;;6.20;;
15624;SDS011;7912;51.376;6.126;2023-02-17T07:04:52;6.67;;;5.57;;
15624;SDS011;7912;51.376;6.126;2023-02-17T07:07:19;7.73;;;7.03;;
15624;SDS011;7912;51.376;6.126;2023-02-17T07:09:46;6.90;;;6.10;;
15624;SDS011;7912;51.376;6.126;2023-02-17T07:12:14;7.33;;;6.63;;
15624;SDS011;7912;51.376;6.126;2023-02-17T07:14:41;8.80;;;7.90;;
15624;SDS011;7912;51.376;6.126;2023-02-17T07:17:08;8.33;;;7.47;;
15624;SDS011;7912;51.376;6.126;2023-02-17T07:19:35;8.77;;;7.87;;
15624;SDS011;7912;51.376;6.126;2023-02-17T07:27:55;9.43;;;8.53;;
15624;SDS011;7912;51.376;6.126;2023-02-17T07:33:09;10.30;;;9.20;;
15624;SDS011;7912;51.376;6.126;2023-02-17T07:39:47;9.50;;;8.50;;
15624;SDS011;7912;51.376;6.126;2023-02-17T07:42:14;8.70;;;7.83;;
15624;SDS011;7912;51.376;6.126;2023-02-17T07:44:41;9.33;;;8.33;;
15624;SDS011;7912;51.376;6.126;2023-02-17T07:47:09;8.90;;;7.80;;
15624;SDS011;7912;51.376;6.126;2023-02-17T07:57:11;7.60;;;6.77;;
15624;SDS011;7912;51.376;6.126;2023-02-17T07:59:38;7.27;;;6.47;;
15624;SDS011;7912;51.376;6.126;2023-02-17T08:02:05;7.37;;;6.67;;
15624;SDS011;7912;51.376;6.126;2023-02-17T08:04:33;7.83;;;6.30;;
15624;SDS011;7912;51.376;6.126;2023-02-17T08:07:00;8.00;;;7.17;;
15624;SDS011;7912;51.376;6.126;2023-02-17T08:09:27;8.13;;;6.87;;
15624;SDS011;7912;51.376;6.126;2023-02-17T08:12:14;7.83;;;7.03;;
15624;SDS011;7912;51.376;6.126;2023-02-17T08:15:06;7.37;;;6.67;;
15624;SDS011;7912;51.376;6.126;2023-02-17T08:17:38;7.47;;;6.67;;
15624;SDS011;7912;51.376;6.126;2023-02-17T08:20:06;8.77;;;7.20;;
15624;SDS011;7912;51.376;6.126;2023-02-17T08:22:35;7.87;;;7.07;;
15624;SDS011;7912;51.376;6.126;2023-02-17T08:25:03;7.70;;;6.90;;
15624;SDS011;7912;51.376;6.126;2023-02-17T08:27:31;8.50;;;7.30;;
15624;SDS011;7912;51.376;6.126;2023-02-17T08:29:58;8.47;;;7.67;;
15624;SDS011;7912;51.376;6.126;2023-02-17T08:32:26;7.97;;;6.57;;
15624;SDS011;7912;51.376;6.126;2023-02-17T08:34:54;8.03;;;6.77;;
15624;SDS011;7912;51.376;6.126;2023-02-17T08:41:12;6.80;;;6.10;;
15624;SDS011;7912;51.376;6.126;2023-02-17T08:43:47;7.23;;;6.40;;
15624;SDS011;7912;51.376;6.126;2023-02-17T08:46:16;7.53;;;6.73;;
15624;SDS011;7912;51.376;6.126;2023-02-17T08:48:45;8.23;;;6.40;;
15624;SDS011;7912;51.376;6.126;2023-02-17T08:51:13;6.97;;;6.27;;
15624;SDS011;7912;51.376;6.126;2023-02-17T08:53:44;8.00;;;6.10;;
15624;SDS011;7912;51.376;6.126;2023-02-17T08:56:12;8.07;;;6.93;;
15624;SDS011;7912;51.376;6.126;2023-02-17T08:58:39;9.23;;;6.07;;
15624;SDS011;7912;51.376;6.126;2023-02-17T09:01:06;9.57;;;6.63;;
15624;SDS011;7912;51.376;6.126;2023-02-17T09:03:34;9.10;;;6.70;;
15624;SDS011;7912;51.376;6.126;2023-02-17T09:06:03;7.27;;;6.03;;
15624;SDS011;7912;51.376;6.126;2023-02-17T09:17:50;7.13;;;6.10;;
15624;SDS011;7912;51.376;6.126;2023-02-17T09:20:17;6.97;;;6.10;;
15624;SDS011;7912;51.376;6.126;2023-02-17T09:26:50;6.73;;;5.90;;
15624;SDS011;7912;51.376;6.126;2023-02-17T09:29:18;6.97;;;5.93;;
15624;SDS011;7912;51.376;6.126;2023-02-17T09:31:45;8.57;;;5.93;;
15624;SDS011;7912;51.376;6.126;2023-02-17T09:34:13;6.97;;;6.13;;
15624;SDS011;7912;51.376;6.126;2023-02-17T09:36:41;7.30;;;6.10;;
15624;SDS011;7912;51.376;6.126;2023-02-17T09:39:08;7.97;;;6.23;;
15624;SDS011;7912;51.376;6.126;2023-02-17T09:41:46;6.60;;;5.90;;
15624;SDS011;7912;51.376;6.126;2023-02-17T09:44:25;6.73;;;5.87;;
15624;SDS011;7912;51.376;6.126;2023-02-17T09:47:42;6.47;;;5.43;;
15624;SDS011;7912;51.376;6.126;2023-02-17T09:50:26;6.03;;;5.40;;
15624;SDS011;7912;51.376;6.126;2023-02-17T09:56:31;6.20;;;5.33;;
15624;SDS011;7912;51.376;6.126;2023-02-17T09:59:23;7.20;;;5.60;;
15624;SDS011;7912;51.376;6.126;2023-02-17T10:02:12;6.63;;;5.90;;
15624;SDS011;7912;51.376;6.126;2023-02-17T10:04:52;6.03;;;5.43;;
15624;SDS011;7912;51.376;6.126;2023-02-17T10:07:28;7.63;;;6.30;;
15624;SDS011;7912;51.376;6.126;2023-02-17T10:10:17;5.93;;;5.33;;
15624;SDS011;7912;51.376;6.126;2023-02-17T10:12:54;6.40;;;5.50;;
15624;SDS011;7912;51.376;6.126;2023-02-17T10:15:29;6.20;;;5.60;;
15624;SDS011;7912;51.376;6.126;2023-02-17T10:20:51;7.67;;;5.60;;
15624;SDS011;7912;51.376;6.126;2023-02-17T10:23:28;6.10;;;5.50;;
15624;SDS011;7912;51.376;6.126;2023-02-17T10:26:07;6.63;;;5.73;;
15624;SDS011;7912;51.376;6.126;2023-02-17T10:29:05;6.33;;;5.20;;
15624;SDS011;7912;51.376;6.126;2023-02-17T10:32:21;5.73;;;5.07;;
15624;SDS011;7912;51.376;6.126;2023-02-17T10:35:12;6.77;;;5.50;;
15624;SDS011;7912;51.376;6.126;2023-02-17T10:58:16;6.47;;;4.03;;
15624;SDS011;7912;51.376;6.126;2023-02-17T11:00:53;4.60;;;4.00;;
15624;SDS011;7912;51.376;6.126;2023-02-17T11:03:26;4.37;;;3.67;;
15624;SDS011;7912;51.376;6.126;2023-02-17T11:08:49;3.40;;;3.10;;
15624;SDS011;7912;51.376;6.126;2023-02-17T11:14:20;3.27;;;2.97;;
15624;SDS011;7912;51.376;6.126;2023-02-17T11:16:58;3.97;;;3.10;;
15624;SDS011;7912;51.376;6.126;2023-02-17T11:25:58;3.10;;;2.80;;
15624;SDS011;7912;51.376;6.126;2023-02-17T11:28:34;2.70;;;2.50;;
15624;SDS011;7912;51.376;6.126;2023-02-17T11:31:04;3.20;;;2.90;;
15624;SDS011;7912;51.376;6.126;2023-02-17T11:33:39;2.77;;;2.57;;
15624;SDS011;7912;51.376;6.126;2023-02-17T11:36:06;2.77;;;2.57;;
15624;SDS011;7912;51.376;6.126;2023-02-17T11:38:47;3.30;;;2.63;;
15624;SDS011;7912;51.376;6.126;2023-02-17T11:41:17;2.67;;;2.47;;
15624;SDS011;7912;51.376;6.126;2023-02-17T11:43:55;3.63;;;2.30;;
15624;SDS011;7912;51.376;6.126;2023-02-17T11:46:39;3.27;;;2.50;;
15624;SDS011;7912;51.376;6.126;2023-02-17T12:04:31;2.33;;;2.10;;
15624;SDS011;7912;51.376;6.126;2023-02-17T12:10:28;2.50;;;2.30;;
15624;SDS011;7912;51.376;6.126;2023-02-17T12:13:18;3.97;;;2.27;;
15624;SDS011;7912;51.376;6.126;2023-02-17T12:16:06;3.20;;;2.40;;
15624;SDS011;7912;51.376;6.126;2023-02-17T12:21:51;2.50;;;2.07;;
15624;SDS011;7912;51.376;6.126;2023-02-17T12:36:12;2.77;;;2.10;;
15624;SDS011;7912;51.376;6.126;2023-02-17T12:38:43;2.23;;;2.03;;
15624;SDS011;7912;51.376;6.126;2023-02-17T13:00:15;2.27;;;2.00;;
15624;SDS011;7912;51.376;6.126;2023-02-17T13:15:24;1.90;;;1.63;;
15624;SDS011;7912;51.376;6.126;2023-02-17T13:20:50;1.97;;;1.80;;
15624;SDS011;7912;51.376;6.126;2023-02-17T13:23:31;2.93;;;2.43;;
15624;SDS011;7912;51.376;6.126;2023-02-17T13:28:46;2.93;;;1.63;;
15624;SDS011;7912;51.376;6.126;2023-02-17T13:31:18;4.07;;;1.67;;
15624;SDS011;7912;51.376;6.126;2023-02-17T13:38:02;2.13;;;1.57;;
15624;SDS011;7912;51.376;6.126;2023-02-17T13:46:47;2.83;;;1.80;;
15624;SDS011;7912;51.376;6.126;2023-02-17T13:49:21;2.37;;;1.60;;
15624;SDS011;7912;51.376;6.126;2023-02-17T13:51:53;1.80;;;1.43;;
15624;SDS011;7912;51.376;6.126;2023-02-17T13:54:21;3.60;;;1.43;;
15624;SDS011;7912;51.376;6.126;2023-02-17T13:56:49;3.30;;;1.80;;
15624;SDS011;7912;51.376;6.126;2023-02-17T13:59:25;2.13;;;1.50;;
15624;SDS011;7912;51.376;6.126;2023-02-17T14:01:53;1.80;;;1.37;;
15624;SDS011;7912;51.376;6.126;2023-02-17T14:04:25;2.00;;;1.50;;
15624;SDS011;7912;51.376;6.126;2023-02-17T14:06:56;1.50;;;1.40;;
15624;SDS011;7912;51.376;6.126;2023-02-17T14:09:27;1.90;;;1.70;;
15624;SDS011;7912;51.376;6.126;2023-02-17T14:12:00;3.00;;;1.50;;
15624;SDS011;7912;51.376;6.126;2023-02-17T14:14:36;3.97;;;1.70;;
15624;SDS011;7912;51.376;6.126;2023-02-17T14:17:12;1.40;;;1.30;;
15624;SDS011;7912;51.376;6.126;2023-02-17T14:19:59;4.27;;;1.67;;
15624;SDS011;7912;51.376;6.126;2023-02-17T14:22:28;1.80;;;1.70;;
15624;SDS011;7912;51.376;6.126;2023-02-17T14:25:07;2.10;;;1.87;;
15624;SDS011;7912;51.376;6.126;2023-02-17T14:27:47;2.10;;;1.90;;
15624;SDS011;7912;51.376;6.126;2023-02-17T14:30:36;2.67;;;1.90;;
15624;SDS011;7912;51.376;6.126;2023-02-17T14:38:29;2.70;;;2.20;;
15624;SDS011;7912;51.376;6.126;2023-02-17T14:40:58;3.20;;;2.20;;
15624;SDS011;7912;51.376;6.126;2023-02-17T14:43:26;2.80;;;2.53;;
15624;SDS011;7912;51.376;6.126;2023-02-17T14:45:54;3.60;;;3.30;;
15624;SDS011;7912;51.376;6.126;2023-02-17T14:48:23;2.87;;;2.60;;
15624;SDS011;7912;51.376;6.126;2023-02-17T14:50:53;2.70;;;2.50;;
15624;SDS011;7912;51.376;6.126;2023-02-17T14:56:02;3.83;;;2.20;;
15624;SDS011;7912;51.376;6.126;2023-02-17T14:58:44;3.43;;;2.40;;
15624;SDS011;7912;51.376;6.126;2023-02-17T15:01:12;2.63;;;2.30;;
15624;SDS011;7912;51.376;6.126;2023-02-17T15:03:43;2.80;;;2.60;;
15624;SDS011;7912;51.376;6.126;2023-02-17T15:06:14;4.63;;;3.00;;
15624;SDS011;7912;51.376;6.126;2023-02-17T15:08:47;2.60;;;2.40;;
15624;SDS011;7912;51.376;6.126;2023-02-17T15:11:17;3.83;;;3.03;;
15624;SDS011;7912;51.376;6.126;2023-02-17T15:13:53;3.40;;;2.80;;
15624;SDS011;7912;51.376;6.126;2023-02-17T15:16:20;3.33;;;3.03;;
15624;SDS011;7912;51.376;6.126;2023-02-17T15:18:48;4.20;;;2.63;;
15624;SDS011;7912;51.376;6.126;2023-02-17T15:49:40;4.97;;;3.57;;
15624;SDS011;7912;51.376;6.126;2023-02-17T15:52:48;4.33;;;3.70;;
15624;SDS011;7912;51.376;6.126;2023-02-17T15:55:17;4.23;;;3.93;;
15624;SDS011;7912;51.376;6.126;2023-02-17T15:57:46;4.27;;;3.87;;
15624;SDS011;7912;51.376;6.126;2023-02-17T16:00:24;4.93;;;4.07;;
15624;SDS011;7912;51.376;6.126;2023-02-17T16:02:57;4.13;;;3.73;;
15624;SDS011;7912;51.376;6.126;2023-02-17T16:05:26;4.03;;;3.63;;
15624;SDS011;7912;51.376;6.126;2023-02-17T16:07:58;4.43;;;4.00;;
15624;SDS011;7912;51.376;6.126;2023-02-17T16:10:25;3.83;;;3.47;;
15624;SDS011;7912;51.376;6.126;2023-02-17T16:12:54;4.80;;;4.40;;
15624;SDS011;7912;51.376;6.126;2023-02-17T16:15:28;3.97;;;3.67;;
15624;SDS011;7912;51.376;6.126;2023-02-17T16:17:57;4.03;;;3.73;;
15624;SDS011;7912;51.376;6.126;2023-02-17T16:20:26;4.43;;;4.03;;
15624;SDS011;7912;51.376;6.126;2023-02-17T16:23:00;5.60;;;5.00;;
15624;SDS011;7912;51.376;6.126;2023-02-17T16:25:28;5.30;;;4.80;;
15624;SDS011;7912;51.376;6.126;2023-02-17T16:27:56;5.00;;;4.50;;
15624;SDS011;7912;51.376;6.126;2023-02-17T16:32:56;5.30;;;4.80;;
15624;SDS011;7912;51.376;6.126;2023-02-17T16:35:25;4.93;;;4.43;;
15624;SDS011;7912;51.376;6.126;2023-02-17T16:40:48;4.80;;;4.40;;
15624;SDS011;7912;51.376;6.126;2023-02-17T16:43:19;4.90;;;4.50;;
15624;SDS011;7912;51.376;6.126;2023-02-17T16:45:57;4.90;;;4.47;;
15624;SDS011;7912;51.376;6.126;2023-02-17T16:48:29;5.67;;;5.17;;
15624;SDS011;7912;51.376;6.126;2023-02-17T16:51:00;5.73;;;5.13;;
15624;SDS011;7912;51.376;6.126;2023-02-17T16:53:28;5.90;;;5.40;;
15624;SDS011;7912;51.376;6.126;2023-02-17T16:55:55;5.97;;;5.43;;
15624;SDS011;7912;51.376;6.126;2023-02-17T16:58:23;5.87;;;5.27;;
15624;SDS011;7912;51.376;6.126;2023-02-17T17:00:53;5.80;;;5.13;;
15624;SDS011;7912;51.376;6.126;2023-02-17T17:03:36;5.10;;;4.60;;
15624;SDS011;7912;51.376;6.126;2023-02-17T17:09:56;4.47;;;4.07;;
15624;SDS011;7912;51.376;6.126;2023-02-17T17:12:43;4.90;;;4.40;;
15624;SDS011;7912;51.376;6.126;2023-02-17T17:15:11;5.60;;;4.80;;
15624;SDS011;7912;51.376;6.126;2023-02-17T17:17:42;5.87;;;5.27;;
15624;SDS011;7912;51.376;6.126;2023-02-17T17:20:30;4.80;;;4.40;;
15624;SDS011;7912;51.376;6.126;2023-02-17T17:23:01;5.30;;;4.80;;
15624;SDS011;7912;51.376;6.126;2023-02-17T17:25:39;5.23;;;4.50;;
15624;SDS011;7912;51.376;6.126;2023-02-17T17:28:14;5.60;;;4.97;;
15624;SDS011;7912;51.376;6.126;2023-02-17T17:30:44;5.67;;;5.07;;
15624;SDS011;7912;51.376;6.126;2023-02-17T17:33:12;5.80;;;5.30;;
15624;SDS011;7912;51.376;6.126;2023-02-17T17:35:40;5.70;;;5.20;;
15624;SDS011;7912;51.376;6.126;2023-02-17T17:38:10;5.63;;;4.63;;
15624;SDS011;7912;51.376;6.126;2023-02-17T17:40:40;5.87;;;5.37;;
15624;SDS011;7912;51.376;6.126;2023-02-17T17:43:15;5.67;;;5.17;;
15624;SDS011;7912;51.376;6.126;2023-02-17T17:45:47;5.90;;;5.33;;
15624;SDS011;7912;51.376;6.126;2023-02-17T17:48:16;5.67;;;5.07;;
15624;SDS011;7912;51.376;6.126;2023-02-17T17:50:44;5.53;;;5.03;;
15624;SDS011;7912;51.376;6.126;2023-02-17T17:53:11;6.13;;;5.10;;
15624;SDS011;7912;51.376;6.126;2023-02-17T17:55:41;5.60;;;5.10;;
15624;SDS011;7912;51.376;6.126;2023-02-17T17:58:09;5.03;;;4.63;;
15624;SDS011;7912;51.376;6.126;2023-02-17T18:00:36;6.53;;;5.60;;
15624;SDS011;7912;51.376;6.126;2023-02-17T18:03:03;6.10;;;5.43;;
15624;SDS011;7912;51.376;6.126;2023-02-17T18:05:30;6.07;;;5.43;;
15624;SDS011;7912;51.376;6.126;2023-02-17T18:07:58;6.23;;;5.20;;
15624;SDS011;7912;51.376;6.126;2023-02-17T18:10:27;6.70;;;4.97;;
15624;SDS011;7912;51.376;6.126;2023-02-17T18:16:42;5.50;;;5.00;;
15624;SDS011;7912;51.376;6.126;2023-02-17T18:19:13;6.00;;;5.37;;
15624;SDS011;7912;51.376;6.126;2023-02-17T18:21:44;6.30;;;5.77;;
15624;SDS011;7912;51.376;6.126;2023-02-17T18:24:13;6.73;;;5.73;;
15624;SDS011;7912;51.376;6.126;2023-02-17T18:26:40;7.17;;;6.47;;
15624;SDS011;7912;51.376;6.126;2023-02-17T18:29:07;6.60;;;5.80;;
15624;SDS011;7912;51.376;6.126;2023-02-17T18:31:34;7.40;;;6.70;;
15624;SDS011;7912;51.376;6.126;2023-02-17T18:34:02;8.30;;;7.50;;
15624;SDS011;7912;51.376;6.126;2023-02-17T18:36:30;7.13;;;6.43;;
15624;SDS011;7912;51.376;6.126;2023-02-17T18:38:57;6.87;;;6.27;;
15624;SDS011;7912;51.376;6.126;2023-02-17T18:41:25;6.83;;;6.17;;
15624;SDS011;7912;51.376;6.126;2023-02-17T18:43:56;6.53;;;5.93;;
15624;SDS011;7912;51.376;6.126;2023-02-17T18:46:25;6.67;;;6.03;;
15624;SDS011;7912;51.376;6.126;2023-02-17T18:48:53;6.30;;;5.73;;
15624;SDS011;7912;51.376;6.126;2023-02-17T18:51:22;7.17;;;6.47;;
15624;SDS011;7912;51.376;6.126;2023-02-17T18:53:53;6.90;;;6.30;;
15624;SDS011;7912;51.376;6.126;2023-02-17T18:56:26;7.13;;;6.40;;
15624;SDS011;7912;51.376;6.126;2023-02-17T18:58:56;7.63;;;6.93;;
15624;SDS011;7912;51.376;6.126;2023-02-17T19:01:28;7.70;;;7.00;;
15624;SDS011;7912;51.376;6.126;2023-02-17T19:03:58;6.90;;;6.30;;
15624;SDS011;7912;51.376;6.126;2023-02-17T19:06:28;7.67;;;6.93;;
15624;SDS011;7912;51.376;6.126;2023-02-17T19:09:00;7.80;;;7.10;;
15624;SDS011;7912;51.376;6.126;2023-02-17T19:11:31;8.40;;;7.60;;
15624;SDS011;7912;51.376;6.126;2023-02-17T19:14:00;8.43;;;7.73;;
15624;SDS011;7912;51.376;6.126;2023-02-17T19:16:29;9.20;;;8.30;;
15624;SDS011;7912;51.376;6.126;2023-02-17T19:18:58;8.60;;;7.80;;
15624;SDS011;7912;51.376;6.126;2023-02-17T19:21:26;8.03;;;7.23;;
15624;SDS011;7912;51.376;6.126;2023-02-17T19:23:53;8.37;;;7.53;;
15624;SDS011;7912;51.376;6.126;2023-02-17T19:26:21;8.03;;;7.33;;
15624;SDS011;7912;51.376;6.126;2023-02-17T19:28:48;8.13;;;7.40;;
15624;SDS011;7912;51.376;6.126;2023-02-17T19:31:18;8.50;;;7.30;;
15624;SDS011;7912;51.376;6.126;2023-02-17T19:33:46;10.77;;;7.33;;
15624;SDS011;7912;51.376;6.126;2023-02-17T19:36:14;7.87;;;7.17;;
15624;SDS011;7912;51.376;6.126;2023-02-17T19:38:47;8.47;;;7.70;;
15624;SDS011;7912;51.376;6.126;2023-02-17T19:41:17;8.40;;;7.60;;